sensor_id;sensor_type;location;lat;lon;timestamp;P1;durP1;ratioP1;P2;durP2;ratioP2
17943;SDS011;9097;47.028;15.444;2022-09-09T00:02:59;2.17;;;1.05;;
17943;SDS011;9097;47.028;15.444;2022-09-09T00:06:06;2.00;;;0.77;;
17943;SDS011;9097;47.028;15.444;2022-09-09T00:09:14;1.23;;;0.60;;
17943;SDS011;9097;47.028;15.444;2022-09-09T00:12:22;0.68;;;0.38;;
17943;SDS011;9097;47.028;15.444;2022-09-09T00:15:30;2.85;;;1.23;;
17943;SDS011;9097;47.028;15.444;2022-09-09T00:18:44;2.25;;;1.08;;
17943;SDS011;9097;47.028;15.444;2022-09-09T00:21:53;2.28;;;0.75;;
17943;SDS011;9097;47.028;15.444;2022-09-09T00:25:05;0.57;;;0.40;;
17943;SDS011;9097;47.028;15.444;2022-09-09T00:28:13;1.08;;;0.70;;
17943;SDS011;9097;47.028;15.444;2022-09-09T00:31:20;0.93;;;0.60;;
17943;SDS011;9097;47.028;15.444;2022-09-09T00:34:25;0.60;;;0.40;;
17943;SDS011;9097;47.028;15.444;2022-09-09T00:37:29;0.43;;;0.43;;
17943;SDS011;9097;47.028;15.444;2022-09-09T00:40:38;1.08;;;0.60;;
17943;SDS011;9097;47.028;15.444;2022-09-09T00:43:43;0.60;;;0.47;;
17943;SDS011;9097;47.028;15.444;2022-09-09T00:50:13;0.63;;;0.63;;
17943;SDS011;9097;47.028;15.444;2022-09-09T00:56:26;1.83;;;0.70;;
17943;SDS011;9097;47.028;15.444;2022-09-09T00:59:34;0.50;;;0.50;;
17943;SDS011;9097;47.028;15.444;2022-09-09T01:02:44;0.50;;;0.50;;
17943;SDS011;9097;47.028;15.444;2022-09-09T01:05:57;0.83;;;0.60;;
17943;SDS011;9097;47.028;15.444;2022-09-09T01:09:04;0.80;;;0.40;;
17943;SDS011;9097;47.028;15.444;2022-09-09T01:12:11;0.52;;;0.47;;
17943;SDS011;9097;47.028;15.444;2022-09-09T01:15:17;2.65;;;1.55;;
17943;SDS011;9097;47.028;15.444;2022-09-09T01:18:23;0.68;;;0.40;;
17943;SDS011;9097;47.028;15.444;2022-09-09T01:21:32;0.90;;;0.40;;
17943;SDS011;9097;47.028;15.444;2022-09-09T01:24:38;4.07;;;0.70;;
17943;SDS011;9097;47.028;15.444;2022-09-09T01:27:46;1.88;;;0.60;;
17943;SDS011;9097;47.028;15.444;2022-09-09T01:30:49;0.37;;;0.33;;
17943;SDS011;9097;47.028;15.444;2022-09-09T01:33:52;0.55;;;0.55;;
17943;SDS011;9097;47.028;15.444;2022-09-09T01:36:57;1.17;;;0.40;;
17943;SDS011;9097;47.028;15.444;2022-09-09T01:40:01;0.77;;;0.30;;
17943;SDS011;9097;47.028;15.444;2022-09-09T01:43:05;1.05;;;0.60;;
17943;SDS011;9097;47.028;15.444;2022-09-09T01:46:08;1.47;;;1.33;;
17943;SDS011;9097;47.028;15.444;2022-09-09T01:49:12;12.30;;;1.57;;
17943;SDS011;9097;47.028;15.444;2022-09-09T01:52:15;1.50;;;0.73;;
17943;SDS011;9097;47.028;15.444;2022-09-09T01:55:18;1.30;;;0.85;;
17943;SDS011;9097;47.028;15.444;2022-09-09T01:58:27;0.35;;;0.30;;
17943;SDS011;9097;47.028;15.444;2022-09-09T02:01:36;1.07;;;0.63;;
17943;SDS011;9097;47.028;15.444;2022-09-09T02:04:44;0.65;;;0.60;;
17943;SDS011;9097;47.028;15.444;2022-09-09T02:07:47;2.53;;;0.45;;
17943;SDS011;9097;47.028;15.444;2022-09-09T02:10:53;1.88;;;0.52;;
17943;SDS011;9097;47.028;15.444;2022-09-09T02:14:00;0.77;;;0.60;;
17943;SDS011;9097;47.028;15.444;2022-09-09T02:17:05;0.88;;;0.47;;
17943;SDS011;9097;47.028;15.444;2022-09-09T02:20:12;0.32;;;0.28;;
17943;SDS011;9097;47.028;15.444;2022-09-09T02:23:15;0.50;;;0.43;;
17943;SDS011;9097;47.028;15.444;2022-09-09T02:26:20;0.85;;;0.50;;
17943;SDS011;9097;47.028;15.444;2022-09-09T02:29:26;0.93;;;0.52;;
17943;SDS011;9097;47.028;15.444;2022-09-09T02:32:31;1.17;;;0.65;;
17943;SDS011;9097;47.028;15.444;2022-09-09T02:35:34;0.80;;;0.47;;
17943;SDS011;9097;47.028;15.444;2022-09-09T02:38:39;2.38;;;1.00;;
17943;SDS011;9097;47.028;15.444;2022-09-09T02:41:43;5.15;;;1.13;;
17943;SDS011;9097;47.028;15.444;2022-09-09T02:44:47;1.43;;;0.80;;
17943;SDS011;9097;47.028;15.444;2022-09-09T02:47:50;0.67;;;0.53;;
17943;SDS011;9097;47.028;15.444;2022-09-09T02:50:56;1.40;;;1.08;;
17943;SDS011;9097;47.028;15.444;2022-09-09T02:54:04;2.92;;;0.65;;
17943;SDS011;9097;47.028;15.444;2022-09-09T02:57:12;0.50;;;0.50;;
17943;SDS011;9097;47.028;15.444;2022-09-09T03:00:21;1.07;;;0.80;;
17943;SDS011;9097;47.028;15.444;2022-09-09T03:03:24;0.82;;;0.70;;
17943;SDS011;9097;47.028;15.444;2022-09-09T03:06:27;4.07;;;0.70;;
17943;SDS011;9097;47.028;15.444;2022-09-09T03:09:30;0.87;;;0.43;;
17943;SDS011;9097;47.028;15.444;2022-09-09T03:12:34;0.97;;;0.70;;
17943;SDS011;9097;47.028;15.444;2022-09-09T03:15:39;1.73;;;0.73;;
17943;SDS011;9097;47.028;15.444;2022-09-09T03:18:41;0.90;;;0.73;;
17943;SDS011;9097;47.028;15.444;2022-09-09T03:21:46;1.15;;;0.90;;
17943;SDS011;9097;47.028;15.444;2022-09-09T03:24:57;0.80;;;0.53;;
17943;SDS011;9097;47.028;15.444;2022-09-09T03:28:04;1.17;;;0.68;;
17943;SDS011;9097;47.028;15.444;2022-09-09T03:31:08;3.00;;;1.37;;
17943;SDS011;9097;47.028;15.444;2022-09-09T03:34:11;0.97;;;0.67;;
17943;SDS011;9097;47.028;15.444;2022-09-09T03:37:14;1.10;;;0.50;;
17943;SDS011;9097;47.028;15.444;2022-09-09T03:40:18;1.13;;;0.83;;
17943;SDS011;9097;47.028;15.444;2022-09-09T03:43:21;2.60;;;0.50;;
17943;SDS011;9097;47.028;15.444;2022-09-09T03:46:25;1.00;;;0.60;;
17943;SDS011;9097;47.028;15.444;2022-09-09T03:49:28;0.73;;;0.73;;
17943;SDS011;9097;47.028;15.444;2022-09-09T03:52:31;0.65;;;0.63;;
17943;SDS011;9097;47.028;15.444;2022-09-09T03:55:34;2.08;;;1.10;;
17943;SDS011;9097;47.028;15.444;2022-09-09T03:58:37;1.38;;;0.80;;
17943;SDS011;9097;47.028;15.444;2022-09-09T04:01:41;0.65;;;0.63;;
17943;SDS011;9097;47.028;15.444;2022-09-09T04:04:45;1.85;;;0.93;;
17943;SDS011;9097;47.028;15.444;2022-09-09T04:07:49;0.70;;;0.68;;
17943;SDS011;9097;47.028;15.444;2022-09-09T04:10:53;1.37;;;0.80;;
17943;SDS011;9097;47.028;15.444;2022-09-09T04:13:58;2.10;;;1.30;;
17943;SDS011;9097;47.028;15.444;2022-09-09T04:17:03;2.63;;;1.02;;
17943;SDS011;9097;47.028;15.444;2022-09-09T04:20:07;0.75;;;0.60;;
17943;SDS011;9097;47.028;15.444;2022-09-09T04:23:12;0.63;;;0.63;;
17943;SDS011;9097;47.028;15.444;2022-09-09T04:26:15;1.47;;;0.80;;
17943;SDS011;9097;47.028;15.444;2022-09-09T04:29:18;1.63;;;0.67;;
17943;SDS011;9097;47.028;15.444;2022-09-09T04:32:23;0.90;;;0.73;;
17943;SDS011;9097;47.028;15.444;2022-09-09T04:35:27;2.80;;;0.70;;
17943;SDS011;9097;47.028;15.444;2022-09-09T04:38:30;2.10;;;0.80;;
17943;SDS011;9097;47.028;15.444;2022-09-09T04:41:32;1.08;;;0.98;;
17943;SDS011;9097;47.028;15.444;2022-09-09T04:44:35;0.93;;;0.70;;
17943;SDS011;9097;47.028;15.444;2022-09-09T04:47:39;2.03;;;0.90;;
17943;SDS011;9097;47.028;15.444;2022-09-09T04:50:42;1.20;;;1.03;;
17943;SDS011;9097;47.028;15.444;2022-09-09T04:53:45;0.67;;;0.67;;
17943;SDS011;9097;47.028;15.444;2022-09-09T04:56:49;2.13;;;1.23;;
17943;SDS011;9097;47.028;15.444;2022-09-09T04:59:52;1.10;;;0.95;;
17943;SDS011;9097;47.028;15.444;2022-09-09T05:02:56;1.33;;;0.93;;
17943;SDS011;9097;47.028;15.444;2022-09-09T05:06:03;1.30;;;1.00;;
17943;SDS011;9097;47.028;15.444;2022-09-09T05:09:06;1.40;;;0.87;;
17943;SDS011;9097;47.028;15.444;2022-09-09T05:12:09;0.93;;;0.68;;
17943;SDS011;9097;47.028;15.444;2022-09-09T05:15:11;2.08;;;1.35;;
17943;SDS011;9097;47.028;15.444;2022-09-09T05:18:15;4.10;;;1.30;;
17943;SDS011;9097;47.028;15.444;2022-09-09T05:21:21;3.53;;;2.03;;
17943;SDS011;9097;47.028;15.444;2022-09-09T05:24:27;1.97;;;1.47;;
17943;SDS011;9097;47.028;15.444;2022-09-09T05:27:33;3.40;;;1.43;;
17943;SDS011;9097;47.028;15.444;2022-09-09T05:30:36;3.00;;;1.60;;
17943;SDS011;9097;47.028;15.444;2022-09-09T05:33:42;4.00;;;1.37;;
17943;SDS011;9097;47.028;15.444;2022-09-09T05:36:46;2.80;;;0.90;;
17943;SDS011;9097;47.028;15.444;2022-09-09T05:39:49;1.75;;;1.35;;
17943;SDS011;9097;47.028;15.444;2022-09-09T05:42:53;1.83;;;1.57;;
17943;SDS011;9097;47.028;15.444;2022-09-09T05:45:59;2.13;;;1.53;;
17943;SDS011;9097;47.028;15.444;2022-09-09T05:49:04;1.20;;;1.10;;
17943;SDS011;9097;47.028;15.444;2022-09-09T05:52:08;1.93;;;1.40;;
17943;SDS011;9097;47.028;15.444;2022-09-09T05:55:11;2.53;;;1.83;;
17943;SDS011;9097;47.028;15.444;2022-09-09T05:58:24;1.67;;;1.35;;
17943;SDS011;9097;47.028;15.444;2022-09-09T06:01:27;1.23;;;1.13;;
17943;SDS011;9097;47.028;15.444;2022-09-09T06:04:32;1.88;;;1.58;;
17943;SDS011;9097;47.028;15.444;2022-09-09T06:07:35;2.40;;;1.45;;
17943;SDS011;9097;47.028;15.444;2022-09-09T06:10:37;1.77;;;1.50;;
17943;SDS011;9097;47.028;15.444;2022-09-09T06:13:40;2.80;;;1.63;;
17943;SDS011;9097;47.028;15.444;2022-09-09T06:16:43;1.88;;;1.58;;
17943;SDS011;9097;47.028;15.444;2022-09-09T06:19:48;1.92;;;1.63;;
17943;SDS011;9097;47.028;15.444;2022-09-09T06:22:51;1.52;;;1.40;;
17943;SDS011;9097;47.028;15.444;2022-09-09T06:26:00;2.75;;;1.48;;
17943;SDS011;9097;47.028;15.444;2022-09-09T06:29:03;2.58;;;1.30;;
17943;SDS011;9097;47.028;15.444;2022-09-09T06:32:06;4.47;;;2.28;;
17943;SDS011;9097;47.028;15.444;2022-09-09T06:35:10;1.80;;;1.63;;
17943;SDS011;9097;47.028;15.444;2022-09-09T06:38:13;2.50;;;1.45;;
17943;SDS011;9097;47.028;15.444;2022-09-09T06:41:17;1.67;;;1.40;;
17943;SDS011;9097;47.028;15.444;2022-09-09T06:44:20;1.67;;;1.58;;
17943;SDS011;9097;47.028;15.444;2022-09-09T06:47:23;2.00;;;1.35;;
17943;SDS011;9097;47.028;15.444;2022-09-09T06:50:28;2.47;;;1.60;;
17943;SDS011;9097;47.028;15.444;2022-09-09T06:53:31;1.50;;;1.40;;
17943;SDS011;9097;47.028;15.444;2022-09-09T06:56:35;2.15;;;1.35;;
17943;SDS011;9097;47.028;15.444;2022-09-09T06:59:37;1.23;;;1.08;;
17943;SDS011;9097;47.028;15.444;2022-09-09T07:02:40;1.52;;;1.00;;
17943;SDS011;9097;47.028;15.444;2022-09-09T07:05:44;1.88;;;1.50;;
17943;SDS011;9097;47.028;15.444;2022-09-09T07:08:56;7.85;;;1.00;;
17943;SDS011;9097;47.028;15.444;2022-09-09T07:11:59;10.45;;;1.45;;
17943;SDS011;9097;47.028;15.444;2022-09-09T07:15:02;2.80;;;1.55;;
17943;SDS011;9097;47.028;15.444;2022-09-09T07:18:06;5.28;;;1.50;;
17943;SDS011;9097;47.028;15.444;2022-09-09T07:21:12;2.63;;;1.30;;
17943;SDS011;9097;47.028;15.444;2022-09-09T07:24:14;4.13;;;1.50;;
17943;SDS011;9097;47.028;15.444;2022-09-09T07:27:17;2.75;;;0.90;;
17943;SDS011;9097;47.028;15.444;2022-09-09T07:30:21;2.15;;;1.40;;
17943;SDS011;9097;47.028;15.444;2022-09-09T07:33:24;3.97;;;2.60;;
17943;SDS011;9097;47.028;15.444;2022-09-09T07:36:29;2.10;;;1.48;;
17943;SDS011;9097;47.028;15.444;2022-09-09T07:39:33;1.65;;;1.25;;
17943;SDS011;9097;47.028;15.444;2022-09-09T07:42:35;2.53;;;1.70;;
17943;SDS011;9097;47.028;15.444;2022-09-09T07:45:38;4.13;;;1.35;;
17943;SDS011;9097;47.028;15.444;2022-09-09T07:48:43;1.92;;;1.27;;
17943;SDS011;9097;47.028;15.444;2022-09-09T07:51:48;2.08;;;1.38;;
17943;SDS011;9097;47.028;15.444;2022-09-09T07:54:51;2.70;;;1.92;;
17943;SDS011;9097;47.028;15.444;2022-09-09T07:57:55;3.17;;;1.30;;
17943;SDS011;9097;47.028;15.444;2022-09-09T08:00:58;3.75;;;1.90;;
17943;SDS011;9097;47.028;15.444;2022-09-09T08:04:02;3.08;;;1.50;;
17943;SDS011;9097;47.028;15.444;2022-09-09T08:07:07;1.98;;;1.33;;
17943;SDS011;9097;47.028;15.444;2022-09-09T08:10:11;1.80;;;1.52;;
17943;SDS011;9097;47.028;15.444;2022-09-09T08:13:14;3.65;;;2.28;;
17943;SDS011;9097;47.028;15.444;2022-09-09T08:16:25;1.85;;;1.48;;
17943;SDS011;9097;47.028;15.444;2022-09-09T08:19:29;1.10;;;1.00;;
17943;SDS011;9097;47.028;15.444;2022-09-09T08:22:35;3.45;;;1.55;;
17943;SDS011;9097;47.028;15.444;2022-09-09T08:25:38;2.08;;;1.52;;
17943;SDS011;9097;47.028;15.444;2022-09-09T08:28:41;2.45;;;1.25;;
17943;SDS011;9097;47.028;15.444;2022-09-09T08:31:44;1.40;;;1.30;;
17943;SDS011;9097;47.028;15.444;2022-09-09T08:34:47;1.38;;;1.27;;
17943;SDS011;9097;47.028;15.444;2022-09-09T08:37:55;1.48;;;1.33;;
17943;SDS011;9097;47.028;15.444;2022-09-09T08:40:58;1.90;;;1.63;;
17943;SDS011;9097;47.028;15.444;2022-09-09T08:44:07;2.92;;;1.60;;
17943;SDS011;9097;47.028;15.444;2022-09-09T08:47:13;2.25;;;1.77;;
17943;SDS011;9097;47.028;15.444;2022-09-09T08:50:20;1.52;;;1.20;;
17943;SDS011;9097;47.028;15.444;2022-09-09T08:53:26;1.27;;;0.95;;
17943;SDS011;9097;47.028;15.444;2022-09-09T08:56:32;1.55;;;1.17;;
17943;SDS011;9097;47.028;15.444;2022-09-09T08:59:36;1.10;;;1.00;;
17943;SDS011;9097;47.028;15.444;2022-09-09T09:02:40;2.35;;;1.52;;
17943;SDS011;9097;47.028;15.444;2022-09-09T09:05:46;1.42;;;1.27;;
17943;SDS011;9097;47.028;15.444;2022-09-09T09:08:54;1.88;;;1.40;;
17943;SDS011;9097;47.028;15.444;2022-09-09T09:12:01;1.23;;;0.93;;
17943;SDS011;9097;47.028;15.444;2022-09-09T09:15:05;2.67;;;1.60;;
17943;SDS011;9097;47.028;15.444;2022-09-09T09:18:13;2.15;;;1.20;;
17943;SDS011;9097;47.028;15.444;2022-09-09T09:21:18;3.15;;;1.55;;
17943;SDS011;9097;47.028;15.444;2022-09-09T09:24:30;1.25;;;1.05;;
17943;SDS011;9097;47.028;15.444;2022-09-09T09:27:52;1.20;;;1.10;;
17943;SDS011;9097;47.028;15.444;2022-09-09T09:30:59;2.42;;;1.42;;
17943;SDS011;9097;47.028;15.444;2022-09-09T09:34:03;1.98;;;1.40;;
17943;SDS011;9097;47.028;15.444;2022-09-09T09:37:11;2.47;;;1.30;;
17943;SDS011;9097;47.028;15.444;2022-09-09T09:40:17;3.75;;;1.33;;
17943;SDS011;9097;47.028;15.444;2022-09-09T09:43:24;1.42;;;1.30;;
17943;SDS011;9097;47.028;15.444;2022-09-09T09:46:27;1.55;;;1.35;;
17943;SDS011;9097;47.028;15.444;2022-09-09T09:49:30;2.88;;;1.50;;
17943;SDS011;9097;47.028;15.444;2022-09-09T09:52:33;2.30;;;1.30;;
17943;SDS011;9097;47.028;15.444;2022-09-09T09:55:44;1.42;;;1.10;;
17943;SDS011;9097;47.028;15.444;2022-09-09T09:58:51;1.92;;;1.27;;
17943;SDS011;9097;47.028;15.444;2022-09-09T10:01:54;4.13;;;1.35;;
17943;SDS011;9097;47.028;15.444;2022-09-09T10:05:12;2.42;;;1.23;;
17943;SDS011;9097;47.028;15.444;2022-09-09T10:08:16;3.63;;;1.20;;
17943;SDS011;9097;47.028;15.444;2022-09-09T10:11:25;2.80;;;1.38;;
17943;SDS011;9097;47.028;15.444;2022-09-09T10:14:33;2.53;;;0.85;;
17943;SDS011;9097;47.028;15.444;2022-09-09T10:17:40;1.23;;;1.13;;
17943;SDS011;9097;47.028;15.444;2022-09-09T10:20:46;0.93;;;0.93;;
17943;SDS011;9097;47.028;15.444;2022-09-09T10:23:55;0.77;;;0.73;;
17943;SDS011;9097;47.028;15.444;2022-09-09T10:27:09;2.33;;;0.57;;
17943;SDS011;9097;47.028;15.444;2022-09-09T10:30:14;0.70;;;0.70;;
17943;SDS011;9097;47.028;15.444;2022-09-09T10:33:20;1.77;;;0.90;;
17943;SDS011;9097;47.028;15.444;2022-09-09T10:36:28;1.15;;;1.08;;
17943;SDS011;9097;47.028;15.444;2022-09-09T10:39:33;1.65;;;0.75;;
17943;SDS011;9097;47.028;15.444;2022-09-09T10:42:38;2.35;;;1.23;;
17943;SDS011;9097;47.028;15.444;2022-09-09T10:45:44;1.77;;;0.85;;
17943;SDS011;9097;47.028;15.444;2022-09-09T10:48:54;0.85;;;0.82;;
17943;SDS011;9097;47.028;15.444;2022-09-09T10:52:01;1.08;;;0.75;;
17943;SDS011;9097;47.028;15.444;2022-09-09T10:55:08;1.10;;;0.93;;
17943;SDS011;9097;47.028;15.444;2022-09-09T10:58:16;0.90;;;0.77;;
17943;SDS011;9097;47.028;15.444;2022-09-09T11:01:22;1.05;;;0.70;;
17943;SDS011;9097;47.028;15.444;2022-09-09T11:04:27;0.65;;;0.65;;
17943;SDS011;9097;47.028;15.444;2022-09-09T11:07:34;1.00;;;0.60;;
17943;SDS011;9097;47.028;15.444;2022-09-09T11:10:39;0.70;;;0.70;;
17943;SDS011;9097;47.028;15.444;2022-09-09T11:13:45;1.58;;;0.70;;
17943;SDS011;9097;47.028;15.444;2022-09-09T11:16:52;1.35;;;1.00;;
17943;SDS011;9097;47.028;15.444;2022-09-09T11:19:56;2.83;;;0.82;;
17943;SDS011;9097;47.028;15.444;2022-09-09T11:23:00;1.48;;;0.55;;
17943;SDS011;9097;47.028;15.444;2022-09-09T11:26:03;0.73;;;0.52;;
17943;SDS011;9097;47.028;15.444;2022-09-09T11:29:13;0.63;;;0.60;;
17943;SDS011;9097;47.028;15.444;2022-09-09T11:32:26;0.60;;;0.50;;
17943;SDS011;9097;47.028;15.444;2022-09-09T11:35:34;0.63;;;0.60;;
17943;SDS011;9097;47.028;15.444;2022-09-09T11:38:43;0.40;;;0.40;;
17943;SDS011;9097;47.028;15.444;2022-09-09T11:41:47;0.60;;;0.60;;
17943;SDS011;9097;47.028;15.444;2022-09-09T11:44:51;1.15;;;0.75;;
17943;SDS011;9097;47.028;15.444;2022-09-09T11:47:55;0.75;;;0.65;;
17943;SDS011;9097;47.028;15.444;2022-09-09T11:50:59;1.38;;;0.75;;
17943;SDS011;9097;47.028;15.444;2022-09-09T11:54:29;0.80;;;0.52;;
17943;SDS011;9097;47.028;15.444;2022-09-09T11:57:30;0.73;;;0.60;;
17943;SDS011;9097;47.028;15.444;2022-09-09T12:00:35;2.15;;;1.00;;
17943;SDS011;9097;47.028;15.444;2022-09-09T12:03:40;0.82;;;0.52;;
17943;SDS011;9097;47.028;15.444;2022-09-09T12:06:45;0.98;;;0.50;;
17943;SDS011;9097;47.028;15.444;2022-09-09T12:09:55;0.98;;;0.60;;
17943;SDS011;9097;47.028;15.444;2022-09-09T12:13:16;1.10;;;1.00;;
17943;SDS011;9097;47.028;15.444;2022-09-09T12:16:27;0.98;;;0.85;;
17943;SDS011;9097;47.028;15.444;2022-09-09T12:19:31;0.30;;;0.30;;
17943;SDS011;9097;47.028;15.444;2022-09-09T12:22:35;2.55;;;0.60;;
17943;SDS011;9097;47.028;15.444;2022-09-09T12:29:04;0.73;;;0.60;;
17943;SDS011;9097;47.028;15.444;2022-09-09T12:32:13;0.55;;;0.30;;
17943;SDS011;9097;47.028;15.444;2022-09-09T12:35:19;0.57;;;0.57;;
17943;SDS011;9097;47.028;15.444;2022-09-09T12:38:26;0.35;;;0.35;;
17943;SDS011;9097;47.028;15.444;2022-09-09T12:41:31;0.85;;;0.70;;
17943;SDS011;9097;47.028;15.444;2022-09-09T12:44:36;0.47;;;0.47;;
17943;SDS011;9097;47.028;15.444;2022-09-09T12:47:41;1.25;;;0.80;;
17943;SDS011;9097;47.028;15.444;2022-09-09T12:50:48;1.20;;;1.10;;
17943;SDS011;9097;47.028;15.444;2022-09-09T12:53:52;3.00;;;0.93;;
17943;SDS011;9097;47.028;15.444;2022-09-09T12:56:56;0.57;;;0.57;;
17943;SDS011;9097;47.028;15.444;2022-09-09T13:00:11;1.45;;;0.90;;
17943;SDS011;9097;47.028;15.444;2022-09-09T13:03:16;1.05;;;0.55;;
17943;SDS011;9097;47.028;15.444;2022-09-09T13:06:20;0.93;;;0.65;;
17943;SDS011;9097;47.028;15.444;2022-09-09T13:09:25;0.63;;;0.63;;
17943;SDS011;9097;47.028;15.444;2022-09-09T13:12:28;0.40;;;0.40;;
17943;SDS011;9097;47.028;15.444;2022-09-09T13:15:32;0.88;;;0.65;;
17943;SDS011;9097;47.028;15.444;2022-09-09T13:18:36;0.77;;;0.77;;
17943;SDS011;9097;47.028;15.444;2022-09-09T13:21:39;1.50;;;0.47;;
17943;SDS011;9097;47.028;15.444;2022-09-09T13:24:42;1.17;;;0.70;;
17943;SDS011;9097;47.028;15.444;2022-09-09T13:27:51;0.60;;;0.60;;
17943;SDS011;9097;47.028;15.444;2022-09-09T13:31:00;1.05;;;0.93;;
17943;SDS011;9097;47.028;15.444;2022-09-09T13:34:10;0.98;;;0.90;;
17943;SDS011;9097;47.028;15.444;2022-09-09T13:37:20;1.40;;;0.93;;
17943;SDS011;9097;47.028;15.444;2022-09-09T13:40:24;1.55;;;0.90;;
17943;SDS011;9097;47.028;15.444;2022-09-09T13:43:27;1.42;;;0.57;;
17943;SDS011;9097;47.028;15.444;2022-09-09T13:46:33;1.48;;;0.90;;
17943;SDS011;9097;47.028;15.444;2022-09-09T13:49:38;1.25;;;1.15;;
17943;SDS011;9097;47.028;15.444;2022-09-09T13:52:42;0.57;;;0.57;;
17943;SDS011;9097;47.028;15.444;2022-09-09T13:55:47;1.27;;;0.73;;
17943;SDS011;9097;47.028;15.444;2022-09-09T13:58:51;2.30;;;1.10;;
17943;SDS011;9097;47.028;15.444;2022-09-09T14:01:55;0.68;;;0.60;;
17943;SDS011;9097;47.028;15.444;2022-09-09T14:04:58;0.75;;;0.75;;
17943;SDS011;9097;47.028;15.444;2022-09-09T14:08:01;0.95;;;0.80;;
17943;SDS011;9097;47.028;15.444;2022-09-09T14:11:05;0.88;;;0.82;;
17943;SDS011;9097;47.028;15.444;2022-09-09T14:14:08;1.35;;;0.70;;
17943;SDS011;9097;47.028;15.444;2022-09-09T14:17:13;0.75;;;0.75;;
17943;SDS011;9097;47.028;15.444;2022-09-09T14:20:16;0.88;;;0.70;;
17943;SDS011;9097;47.028;15.444;2022-09-09T14:23:19;0.82;;;0.77;;
17943;SDS011;9097;47.028;15.444;2022-09-09T14:26:23;1.42;;;0.75;;
17943;SDS011;9097;47.028;15.444;2022-09-09T14:29:26;1.67;;;0.60;;
17943;SDS011;9097;47.028;15.444;2022-09-09T14:32:30;0.88;;;0.82;;
17943;SDS011;9097;47.028;15.444;2022-09-09T14:35:33;0.50;;;0.50;;
17943;SDS011;9097;47.028;15.444;2022-09-09T14:38:37;1.23;;;0.95;;
17943;SDS011;9097;47.028;15.444;2022-09-09T14:41:40;1.48;;;1.23;;
17943;SDS011;9097;47.028;15.444;2022-09-09T14:44:43;20.55;;;9.32;;
17943;SDS011;9097;47.028;15.444;2022-09-09T14:47:47;69.85;;;30.30;;
17943;SDS011;9097;47.028;15.444;2022-09-09T14:50:51;77.93;;;34.55;;
17943;SDS011;9097;47.028;15.444;2022-09-09T14:53:55;33.45;;;16.42;;
17943;SDS011;9097;47.028;15.444;2022-09-09T14:56:58;26.85;;;13.75;;
17943;SDS011;9097;47.028;15.444;2022-09-09T15:00:02;11.77;;;7.03;;
17943;SDS011;9097;47.028;15.444;2022-09-09T15:03:07;4.53;;;2.03;;
17943;SDS011;9097;47.028;15.444;2022-09-09T15:06:11;1.38;;;1.27;;
17943;SDS011;9097;47.028;15.444;2022-09-09T15:09:15;1.55;;;1.25;;
17943;SDS011;9097;47.028;15.444;2022-09-09T15:12:20;1.38;;;0.80;;
17943;SDS011;9097;47.028;15.444;2022-09-09T15:15:24;1.10;;;0.90;;
17943;SDS011;9097;47.028;15.444;2022-09-09T15:18:31;2.17;;;1.02;;
17943;SDS011;9097;47.028;15.444;2022-09-09T15:21:37;2.13;;;0.88;;
17943;SDS011;9097;47.028;15.444;2022-09-09T15:24:40;1.08;;;0.98;;
17943;SDS011;9097;47.028;15.444;2022-09-09T15:27:43;1.58;;;1.20;;
17943;SDS011;9097;47.028;15.444;2022-09-09T15:30:47;1.27;;;1.05;;
17943;SDS011;9097;47.028;15.444;2022-09-09T15:33:52;1.25;;;1.10;;
17943;SDS011;9097;47.028;15.444;2022-09-09T15:37:00;1.42;;;0.80;;
17943;SDS011;9097;47.028;15.444;2022-09-09T15:40:04;1.30;;;0.88;;
17943;SDS011;9097;47.028;15.444;2022-09-09T15:43:07;1.60;;;0.73;;
17943;SDS011;9097;47.028;15.444;2022-09-09T15:49:34;1.15;;;1.05;;
17943;SDS011;9097;47.028;15.444;2022-09-09T15:52:37;1.02;;;0.82;;
17943;SDS011;9097;47.028;15.444;2022-09-09T15:55:39;2.33;;;1.33;;
17943;SDS011;9097;47.028;15.444;2022-09-09T15:58:42;1.60;;;1.30;;
17943;SDS011;9097;47.028;15.444;2022-09-09T16:01:46;1.70;;;1.10;;
17943;SDS011;9097;47.028;15.444;2022-09-09T16:04:52;2.33;;;1.10;;
17943;SDS011;9097;47.028;15.444;2022-09-09T16:07:54;0.60;;;0.60;;
17943;SDS011;9097;47.028;15.444;2022-09-09T16:11:03;2.50;;;0.88;;
17943;SDS011;9097;47.028;15.444;2022-09-09T16:14:06;2.45;;;1.20;;
17943;SDS011;9097;47.028;15.444;2022-09-09T16:17:09;2.42;;;1.40;;
17943;SDS011;9097;47.028;15.444;2022-09-09T16:20:14;2.35;;;1.45;;
17943;SDS011;9097;47.028;15.444;2022-09-09T16:23:19;1.83;;;1.23;;
17943;SDS011;9097;47.028;15.444;2022-09-09T16:26:22;1.92;;;1.38;;
17943;SDS011;9097;47.028;15.444;2022-09-09T16:29:25;2.25;;;1.10;;
17943;SDS011;9097;47.028;15.444;2022-09-09T16:32:28;1.35;;;1.02;;
17943;SDS011;9097;47.028;15.444;2022-09-09T16:35:32;0.85;;;0.85;;
17943;SDS011;9097;47.028;15.444;2022-09-09T16:38:39;1.60;;;1.23;;
17943;SDS011;9097;47.028;15.444;2022-09-09T16:41:43;1.38;;;1.27;;
17943;SDS011;9097;47.028;15.444;2022-09-09T16:44:46;1.58;;;1.05;;
17943;SDS011;9097;47.028;15.444;2022-09-09T16:47:51;1.25;;;1.00;;
17943;SDS011;9097;47.028;15.444;2022-09-09T16:51:02;2.25;;;1.17;;
17943;SDS011;9097;47.028;15.444;2022-09-09T16:54:06;1.60;;;0.95;;
17943;SDS011;9097;47.028;15.444;2022-09-09T16:57:10;1.13;;;0.85;;
17943;SDS011;9097;47.028;15.444;2022-09-09T17:00:14;2.40;;;0.80;;
17943;SDS011;9097;47.028;15.444;2022-09-09T17:03:18;1.63;;;1.25;;
17943;SDS011;9097;47.028;15.444;2022-09-09T17:06:22;1.63;;;1.45;;
17943;SDS011;9097;47.028;15.444;2022-09-09T17:09:26;2.38;;;1.10;;
17943;SDS011;9097;47.028;15.444;2022-09-09T17:12:31;0.88;;;0.80;;
17943;SDS011;9097;47.028;15.444;2022-09-09T17:15:39;1.23;;;1.02;;
17943;SDS011;9097;47.028;15.444;2022-09-09T17:18:42;2.40;;;1.00;;
17943;SDS011;9097;47.028;15.444;2022-09-09T17:21:47;1.30;;;1.20;;
17943;SDS011;9097;47.028;15.444;2022-09-09T17:24:51;1.30;;;1.05;;
17943;SDS011;9097;47.028;15.444;2022-09-09T17:27:55;2.38;;;1.45;;
17943;SDS011;9097;47.028;15.444;2022-09-09T17:30:58;3.35;;;1.70;;
17943;SDS011;9097;47.028;15.444;2022-09-09T17:34:02;8.07;;;1.52;;
17943;SDS011;9097;47.028;15.444;2022-09-09T17:37:07;1.70;;;1.10;;
17943;SDS011;9097;47.028;15.444;2022-09-09T17:40:10;3.03;;;1.35;;
17943;SDS011;9097;47.028;15.444;2022-09-09T17:43:13;2.58;;;1.48;;
17943;SDS011;9097;47.028;15.444;2022-09-09T17:46:20;2.72;;;1.58;;
17943;SDS011;9097;47.028;15.444;2022-09-09T17:49:25;2.67;;;1.73;;
17943;SDS011;9097;47.028;15.444;2022-09-09T17:52:30;2.45;;;1.13;;
17943;SDS011;9097;47.028;15.444;2022-09-09T17:55:32;3.25;;;1.60;;
17943;SDS011;9097;47.028;15.444;2022-09-09T17:58:35;7.60;;;1.83;;
17943;SDS011;9097;47.028;15.444;2022-09-09T18:01:39;1.92;;;0.90;;
17943;SDS011;9097;47.028;15.444;2022-09-09T18:04:43;1.83;;;0.90;;
17943;SDS011;9097;47.028;15.444;2022-09-09T18:07:48;1.73;;;1.08;;
17943;SDS011;9097;47.028;15.444;2022-09-09T18:10:52;1.52;;;1.10;;
17943;SDS011;9097;47.028;15.444;2022-09-09T18:13:57;3.42;;;1.30;;
17943;SDS011;9097;47.028;15.444;2022-09-09T18:17:01;2.58;;;1.73;;
17943;SDS011;9097;47.028;15.444;2022-09-09T18:20:04;1.30;;;1.10;;
17943;SDS011;9097;47.028;15.444;2022-09-09T18:23:09;1.63;;;1.30;;
17943;SDS011;9097;47.028;15.444;2022-09-09T18:26:13;2.40;;;1.45;;
17943;SDS011;9097;47.028;15.444;2022-09-09T18:29:17;1.83;;;0.90;;
17943;SDS011;9097;47.028;15.444;2022-09-09T18:32:20;1.20;;;0.93;;
17943;SDS011;9097;47.028;15.444;2022-09-09T18:35:23;2.15;;;1.40;;
17943;SDS011;9097;47.028;15.444;2022-09-09T18:38:28;2.53;;;1.25;;
17943;SDS011;9097;47.028;15.444;2022-09-09T18:41:31;1.70;;;1.17;;
17943;SDS011;9097;47.028;15.444;2022-09-09T18:44:34;1.77;;;1.27;;
17943;SDS011;9097;47.028;15.444;2022-09-09T18:47:37;1.30;;;1.13;;
17943;SDS011;9097;47.028;15.444;2022-09-09T18:50:40;1.52;;;1.42;;